Observation data for Post on 06/25/2019      Previous  Date  Next       Current Mesonet Observations  Soil Data  Daily Summary Page  Observations in Plain Language
KPT1 250500Z 17012KT 23/22 A2996 RMK A01 T02290218  RH  097%=      5-min Rain = 0
KPT1 250505Z 17011G16KT 23/19 A2996 RMK A01 T02250185  RH  080%=      5-min Rain = 0
KPT1 250510Z 16011KT 22/17 A2996 RMK A01 T02220173  RH  076%=      5-min Rain = 0
KPT1 250515Z 16008G13KT 22/17 A2995 RMK A01 T02190171  RH  076%=      5-min Rain = 0
KPT1 250520Z 17007KT 22/17 A2995 RMK A01 T02160172  RH  078%=      5-min Rain = 0
KPT1 250525Z 19005KT 21/18 A2995 RMK A01 T02140176  RH  081%=      5-min Rain = 0
KPT1 250530Z 19006KT 22/18 A2995 RMK A01 T02150175  RH  080%=      5-min Rain = 0
KPT1 250535Z 19007KT 22/17 A2994 RMK A01 T02160170  RH  077%=      5-min Rain = 0
KPT1 250540Z 19008KT 22/16 A2994 RMK A01 T02160164  RH  074%=      5-min Rain = 0
KPT1 250545Z 18007KT 22/16 A2994 RMK A01 T02160161  RH  073%=      5-min Rain = 0
KPT1 250550Z 18008KT 21/16 A2994 RMK A01 T02140160  RH  073%=      5-min Rain = 0
KPT1 250555Z 18008KT 21/16 A2993 RMK A01 T02130159  RH  073%=      5-min Rain = 0
KPT1 250600Z 19008KT 21/16 A2993 RMK A01 T02130158  RH  072%=      5-min Rain = 0
KPT1 250605Z 19008KT 21/16 A2993 RMK A01 T02140157  RH  072%=      5-min Rain = 0
KPT1 250610Z 19009G14KT 22/16 A2992 RMK A01 T02150158  RH  072%=      5-min Rain = 0
KPT1 250615Z 19008G14KT 22/16 A2992 RMK A01 T02150159  RH  072%=      5-min Rain = 0
KPT1 250620Z 19009KT 21/16 A2992 RMK A01 T02140160  RH  073%=      5-min Rain = 0
KPT1 250625Z 19009G15KT 22/16 A2992 RMK A01 T02150159  RH  072%=      5-min Rain = 0
KPT1 250630Z 19011G16KT 22/16 A2992 RMK A01 T02170158  RH  071%=      5-min Rain = 0
KPT1 250635Z 19011G16KT 22/16 A2992 RMK A01 T02170157  RH  070%=      5-min Rain = 0
KPT1 250640Z 19011G16KT 22/16 A2992 RMK A01 T02170157  RH  070%=      5-min Rain = 0
KPT1 250645Z 19010KT 22/16 A2992 RMK A01 T02150157  RH  071%=      5-min Rain = 0
KPT1 250650Z 19008G14KT 21/16 A2992 RMK A01 T02140158  RH  072%=      5-min Rain = 0
KPT1 250655Z 19009KT 21/16 A2993 RMK A01 T02130157  RH  072%=      5-min Rain = 0
KPT1 250700Z 19008G13KT 21/16 A2993 RMK A01 T02130156  RH  072%=      5-min Rain = 0
KPT1 250705Z 20008G13KT 21/16 A2993 RMK A01 T02120156  RH  072%=      5-min Rain = 0
KPT1 250710Z 19007KT 21/16 A2993 RMK A01 T02110156  RH  072%=      5-min Rain = 0
KPT1 250715Z 19007G13KT 21/16 A2993 RMK A01 T02100155  RH  073%=      5-min Rain = 0
KPT1 250720Z 19007KT 21/16 A2993 RMK A01 T02080155  RH  073%=      5-min Rain = 0
KPT1 250725Z 19008KT 21/16 A2993 RMK A01 T02070155  RH  073%=      5-min Rain = 0
KPT1 250730Z 19008KT 21/16 A2993 RMK A01 T02070155  RH  073%=      5-min Rain = 0
KPT1 250735Z 19008G13KT 21/16 A2993 RMK A01 T02070155  RH  074%=      5-min Rain = 0
KPT1 250740Z 19008G13KT 21/16 A2993 RMK A01 T02060155  RH  074%=      5-min Rain = 0
KPT1 250745Z 18007KT 21/16 A2993 RMK A01 T02050155  RH  074%=      5-min Rain = 0
KPT1 250750Z 19007KT 21/16 A2993 RMK A01 T02050155  RH  075%=      5-min Rain = 0
KPT1 250755Z 19009KT 21/15 A2993 RMK A01 T02060154  RH  074%=      5-min Rain = 0
KPT1 250800Z 19008KT 21/15 A2993 RMK A01 T02050154  RH  074%=      5-min Rain = 0
KPT1 250805Z 19007G13KT 21/15 A2993 RMK A01 T02050153  RH  073%=      5-min Rain = 0
KPT1 250810Z 19008KT 21/15 A2993 RMK A01 T02060151  RH  072%=      5-min Rain = 0
KPT1 250815Z 20008KT 21/15 A2993 RMK A01 T02060151  RH  072%=      5-min Rain = 0
KPT1 250820Z 20008KT 20/15 A2993 RMK A01 T02040152  RH  074%=      5-min Rain = 0
KPT1 250825Z 20009G14KT 20/15 A2993 RMK A01 T02020152  RH  075%=      5-min Rain = 0
KPT1 250830Z 19009G16KT 20/15 A2993 RMK A01 T02000151  RH  075%=      5-min Rain = 0
KPT1 250835Z 19008KT 20/15 A2993 RMK A01 T02000150  RH  074%=      5-min Rain = 0
KPT1 250840Z 18007KT 20/15 A2993 RMK A01 T01980149  RH  075%=      5-min Rain = 0
KPT1 250845Z 17005KT 20/15 A2993 RMK A01 T01970149  RH  075%=      5-min Rain = 0
KPT1 250850Z 15005KT 20/15 A2993 RMK A01 T01950148  RH  076%=      5-min Rain = 0
KPT1 250855Z 14006KT 20/15 A2994 RMK A01 T01950147  RH  076%=      5-min Rain = 0
KPT1 250900Z 15006KT 20/15 A2994 RMK A01 T01950147  RH  076%=      5-min Rain = 0
KPT1 250905Z 17005KT 20/15 A2994 RMK A01 T01950146  RH  075%=      5-min Rain = 0
KPT1 250910Z 19005KT 19/15 A2994 RMK A01 T01940146  RH  075%=      5-min Rain = 0
KPT1 250915Z 20006KT 20/14 A2994 RMK A01 T01960144  RH  073%=      5-min Rain = 0
KPT1 250920Z 18006KT 20/14 A2994 RMK A01 T01950144  RH  074%=      5-min Rain = 0
KPT1 250925Z 17006KT 20/14 A2994 RMK A01 T01950143  RH  073%=      5-min Rain = 0
KPT1 250930Z 18006KT 20/14 A2994 RMK A01 T01950143  RH  074%=      5-min Rain = 0
KPT1 250935Z 18007KT 20/14 A2994 RMK A01 T01950143  RH  073%=      5-min Rain = 0
KPT1 250940Z 19008G13KT 20/14 A2994 RMK A01 T01960142  RH  073%=      5-min Rain = 0
KPT1 250945Z 20009KT 20/14 A2994 RMK A01 T01980141  RH  071%=      5-min Rain = 0
KPT1 250950Z 20010KT 20/14 A2995 RMK A01 T02000140  RH  070%=      5-min Rain = 0
KPT1 250955Z 20009G16KT 20/14 A2995 RMK A01 T02010139  RH  069%=      5-min Rain = 0
KPT1 251000Z 20009G15KT 20/14 A2995 RMK A01 T02030138  RH  068%=      5-min Rain = 0
KPT1 251005Z 21010KT 20/14 A2995 RMK A01 T02020138  RH  068%=      5-min Rain = 0
KPT1 251010Z 20009KT 20/14 A2995 RMK A01 T02020139  RH  068%=      5-min Rain = 0
KPT1 251015Z 21009KT 20/14 A2995 RMK A01 T02000139  RH  069%=      5-min Rain = 0
KPT1 251020Z 21009KT 20/14 A2995 RMK A01 T02010139  RH  069%=      5-min Rain = 0
KPT1 251025Z 21007KT 20/14 A2995 RMK A01 T01980140  RH  071%=      5-min Rain = 0
KPT1 251030Z 22008KT 20/14 A2995 RMK A01 T01980140  RH  070%=      5-min Rain = 0
KPT1 251035Z 22007G13KT 20/14 A2995 RMK A01 T02000139  RH  069%=      5-min Rain = 0
KPT1 251040Z 21007KT 20/14 A2996 RMK A01 T01980140  RH  071%=      5-min Rain = 0
KPT1 251045Z 21007KT 20/14 A2996 RMK A01 T01990140  RH  070%=      5-min Rain = 0
KPT1 251050Z 21008KT 20/14 A2996 RMK A01 T02000140  RH  070%=      5-min Rain = 0
KPT1 251055Z 21008G13KT 20/14 A2996 RMK A01 T02000140  RH  070%=      5-min Rain = 0
KPT1 251100Z 21008KT 20/14 A2996 RMK A01 T02010140  RH  069%=      5-min Rain = 0
KPT1 251105Z 22008KT 20/14 A2996 RMK A01 T02000140  RH  070%=      5-min Rain = 0
KPT1 251110Z 22008KT 20/14 A2996 RMK A01 T02000141  RH  070%=      5-min Rain = 0
KPT1 251115Z 22010G18KT 20/14 A2996 RMK A01 T02010140  RH  070%=      5-min Rain = 0
KPT1 251120Z 22010KT 20/14 A2996 RMK A01 T02020140  RH  069%=      5-min Rain = 0
KPT1 251125Z 21009G14KT 20/14 A2996 RMK A01 T02010141  RH  069%=      5-min Rain = 0
KPT1 251130Z 21007KT 20/14 A2997 RMK A01 T02000141  RH  070%=      5-min Rain = 0
KPT1 251135Z 21008KT 20/14 A2997 RMK A01 T02000141  RH  070%=      5-min Rain = 0
KPT1 251140Z 21008KT 20/14 A2997 RMK A01 T02000141  RH  070%=      5-min Rain = 0
KPT1 251145Z 22007KT 20/14 A2997 RMK A01 T01990142  RH  071%=      5-min Rain = 0
KPT1 251150Z 22007KT 20/14 A2997 RMK A01 T01980143  RH  072%=      5-min Rain = 0
KPT1 251155Z 22007KT 20/14 A2998 RMK A01 T01990143  RH  072%=      5-min Rain = 0
KPT1 251200Z 22007KT 20/14 A2998 RMK A01 T02000143  RH  071%=      5-min Rain = 0
KPT1 251205Z 22008KT 20/14 A2998 RMK A01 T02000143  RH  071%=      5-min Rain = 0
KPT1 251210Z 22009KT 20/14 A2998 RMK A01 T02020143  RH  070%=      5-min Rain = 0
KPT1 251215Z 21009KT 20/14 A2998 RMK A01 T02030143  RH  070%=      5-min Rain = 0
KPT1 251220Z 22009KT 20/14 A2998 RMK A01 T02040143  RH  070%=      5-min Rain = 0
KPT1 251225Z 22008KT 21/14 A2998 RMK A01 T02050144  RH  070%=      5-min Rain = 0
KPT1 251230Z 22005KT 21/15 A2998 RMK A01 T02060145  RH  070%=      5-min Rain = 0
KPT1 251235Z 21005KT 21/15 A2998 RMK A01 T02070146  RH  069%=      5-min Rain = 0
KPT1 251240Z 22003KT 21/15 A2999 RMK A01 T02100148  RH  069%=      5-min Rain = 0
KPT1 251245Z 21005KT 21/15 A2999 RMK A01 T02110148  RH  069%=      5-min Rain = 0
KPT1 251250Z 22006G11KT 21/15 A2998 RMK A01 T02130147  RH  068%=      5-min Rain = 0
KPT1 251255Z 23006KT 21/15 A2998 RMK A01 T02140148  RH  067%=      5-min Rain = 0
KPT1 251300Z 24005KT 22/15 A2999 RMK A01 T02170150  RH  067%=      5-min Rain = 0
KPT1 251305Z 23004KT 22/15 A2999 RMK A01 T02200152  RH  067%=      5-min Rain = 0
KPT1 251310Z 22005G11KT 22/15 A2999 RMK A01 T02210152  RH  066%=      5-min Rain = 0
KPT1 251315Z 24007KT 22/15 A2999 RMK A01 T02220154  RH  067%=      5-min Rain = 0
KPT1 251320Z 22007G13KT 22/16 A2999 RMK A01 T02240156  RH  067%=      5-min Rain = 0
KPT1 251325Z 23009KT 22/16 A2999 RMK A01 T02230156  RH  068%=      5-min Rain = 0
KPT1 251330Z 22007KT 22/16 A2999 RMK A01 T02240158  RH  067%=      5-min Rain = 0
KPT1 251335Z 22007KT 23/16 A2999 RMK A01 T02260159  RH  067%=      5-min Rain = 0
KPT1 251340Z 21006G11KT 23/16 A2999 RMK A01 T02290162  RH  067%=      5-min Rain = 0
KPT1 251345Z 21006G15KT 23/17 A2999 RMK A01 T02330165  RH  067%=      5-min Rain = 0
KPT1 251350Z 21008G15KT 23/17 A2999 RMK A01 T02340165  RH  067%=      5-min Rain = 0
KPT1 251355Z 21008G13KT 24/17 A30 RMK A01 T02360166  RH  066%=      5-min Rain = 0
KPT1 251400Z 21007G13KT 24/17 A30 RMK A01 T02380168  RH  066%=      5-min Rain = 0
KPT1 251405Z 21009G14KT 24/17 A30 RMK A01 T02400168  RH  066%=      5-min Rain = 0
KPT1 251410Z 21008G15KT 24/17 A30 RMK A01 T02420170  RH  066%=      5-min Rain = 0
KPT1 251415Z 21010G15KT 24/17 A30 RMK A01 T02420168  RH  065%=      5-min Rain = 0
KPT1 251420Z 21007KT 24/17 A3001 RMK A01 T02440171  RH  065%=      5-min Rain = 0
KPT1 251425Z 20007KT 25/17 A3001 RMK A01 T02500174  RH  064%=      5-min Rain = 0
KPT1 251430Z 21009KT 25/17 A3001 RMK A01 T02490172  RH  064%=      5-min Rain = 0
KPT1 251435Z 22009G14KT 25/17 A3001 RMK A01 T02500174  RH  064%=      5-min Rain = 0
KPT1 251440Z 23011G17KT 25/17 A3001 RMK A01 T02520173  RH  063%=      5-min Rain = 0
KPT1 251445Z 22011G16KT 25/17 A3001 RMK A01 T02520171  RH  062%=      5-min Rain = 0
KPT1 251450Z 22013G18KT 25/17 A3001 RMK A01 T02530170  RH  062%=      5-min Rain = 0
KPT1 251455Z 22011G17KT 26/17 A3001 RMK A01 T02550172  RH  061%=      5-min Rain = 0
KPT1 251500Z 23012G18KT 26/17 A30 RMK A01 T02590171  RH  060%=      5-min Rain = 0
KPT1 251505Z 23013G18KT 26/17 A30 RMK A01 T02580171  RH  060%=      5-min Rain = 0
KPT1 251510Z 22010KT 26/17 A3001 RMK A01 T02620174  RH  060%=      5-min Rain = 0
KPT1 251515Z 23009KT 26/17 A3001 RMK A01 T02630173  RH  059%=      5-min Rain = 0
KPT1 251520Z 22009KT 27/18 A3001 RMK A01 T02650175  RH  059%=      5-min Rain = 0
KPT1 251525Z 22009G15KT 26/17 A3001 RMK A01 T02640171  RH  058%=      5-min Rain = 0
KPT1 251530Z 21009G16KT 27/17 A3001 RMK A01 T02670171  RH  057%=      5-min Rain = 0
KPT1 251535Z 23010KT 27/17 A3001 RMK A01 T02670171  RH  057%=      5-min Rain = 0
KPT1 251540Z 22008KT 27/17 A3001 RMK A01 T02690173  RH  057%=      5-min Rain = 0
KPT1 251545Z 22008G14KT 27/17 A3001 RMK A01 T02730174  RH  056%=      5-min Rain = 0
KPT1 251550Z 22009G14KT 27/17 A3001 RMK A01 T02730172  RH  056%=      5-min Rain = 0
KPT1 251555Z 21006KT 28/18 A3001 RMK A01 T02760176  RH  056%=      5-min Rain = 0
KPT1 251600Z 22007KT 28/18 A3001 RMK A01 T02790176  RH  055%=      5-min Rain = 0
KPT1 251605Z 21007G12KT 28/18 A3001 RMK A01 T02810178  RH  055%=      5-min Rain = 0
KPT1 251610Z 20006KT 28/18 A3001 RMK A01 T02820179  RH  055%=      5-min Rain = 0
KPT1 251615Z 20007KT 28/18 A3001 RMK A01 T02830175  RH  053%=      5-min Rain = 0
KPT1 251620Z 19007KT 29/18 A3001 RMK A01 T02850177  RH  053%=      5-min Rain = 0
KPT1 251625Z 19006KT 29/18 A3001 RMK A01 T02880178  RH  053%=      5-min Rain = 0
KPT1 251630Z 20007KT 29/18 A3001 RMK A01 T02910175  RH  051%=      5-min Rain = 0
KPT1 251635Z 20007KT 29/18 A3001 RMK A01 T02890176  RH  052%=      5-min Rain = 0
KPT1 251640Z 19006KT 29/18 A3001 RMK A01 T02920177  RH  051%=      5-min Rain = 0
KPT1 251645Z 20005KT 30/18 A3001 RMK A01 T02950176  RH  050%=      5-min Rain = 0
KPT1 251650Z 19005KT 30/18 A3001 RMK A01 T02960177  RH  050%=      5-min Rain = 0
KPT1 251655Z 15005KT 30/18 A3001 RMK A01 T03000180  RH  050%=      5-min Rain = 0
KPT1 251700Z 15003KT 30/18 A3001 RMK A01 T03020176  RH  048%=      5-min Rain = 0
KPT1 251705Z 17003KT 30/17 A30 RMK A01 T03020173  RH  047%=      5-min Rain = 0
KPT1 251710Z 20005KT 31/17 A30 RMK A01 T03060174  RH  046%=      5-min Rain = 0
KPT1 251715Z 19004KT 31/17 A30 RMK A01 T03080170  RH  045%=      5-min Rain = 0
KPT1 251720Z 18005KT 31/18 A30 RMK A01 T03060175  RH  046%=      5-min Rain = 0
KPT1 251725Z 18005KT 31/17 A30 RMK A01 T03100174  RH  045%=      5-min Rain = 0
KPT1 251730Z 15003KT 31/17 A30 RMK A01 T03100170  RH  044%=      5-min Rain = 0
KPT1 251735Z 16005KT 31/17 A30 RMK A01 T03110169  RH  044%=      5-min Rain = 0
KPT1 251740Z 16004G13KT 31/17 A30 RMK A01 T03130165  RH  042%=      5-min Rain = 0
KPT1 251745Z 19005G10KT 31/16 A2999 RMK A01 T03130164  RH  042%=      5-min Rain = 0
KPT1 251750Z 16004G9KT 32/17 A30 RMK A01 T03150166  RH  042%=      5-min Rain = 0
KPT1 251755Z 16006KT 32/17 A30 RMK A01 T03170170  RH  043%=      5-min Rain = 0
KPT1 251800Z 14006KT 32/17 A30 RMK A01 T03190171  RH  042%=      5-min Rain = 0
KPT1 251805Z 16006KT 32/17 A30 RMK A01 T03220171  RH  041%=      5-min Rain = 0
KPT1 251810Z 15009KT 32/17 A30 RMK A01 T03200169  RH  042%=      5-min Rain = 0
KPT1 251815Z 15008G14KT 32/17 A30 RMK A01 T03190169  RH  042%=      5-min Rain = 0
KPT1 251820Z 14007G12KT 33/18 A30 RMK A01 T03260177  RH  042%=      5-min Rain = 0
KPT1 251825Z 13010KT 32/18 A30 RMK A01 T03200175  RH  043%=      5-min Rain = 0
KPT1 251830Z 14009KT 32/17 A30 RMK A01 T03210172  RH  042%=      5-min Rain = 0
KPT1 251835Z 15010G16KT 32/17 A30 RMK A01 T03230174  RH  042%=      5-min Rain = 0
KPT1 251840Z 14008KT 33/18 A30 RMK A01 T03250175  RH  042%=      5-min Rain = 0
KPT1 251845Z 13009G14KT 32/17 A30 RMK A01 T03210170  RH  042%=      5-min Rain = 0
KPT1 251850Z 15009KT 32/17 A30 RMK A01 T03200171  RH  042%=      5-min Rain = 0
KPT1 251855Z 14009KT 32/17 A30 RMK A01 T03230171  RH  041%=      5-min Rain = 0
KPT1 251900Z 17009KT 32/17 A2999 RMK A01 T03240168  RH  040%=      5-min Rain = 0
KPT1 251905Z 16009G16KT 33/17 A2999 RMK A01 T03250167  RH  040%=      5-min Rain = 0
KPT1 251910Z 15008G14KT 32/17 A2999 RMK A01 T03230168  RH  040%=      5-min Rain = 0
KPT1 251915Z 17009KT 33/17 A2999 RMK A01 T03260168  RH  040%=      5-min Rain = 0
KPT1 251920Z 16009KT 33/16 A2999 RMK A01 T03280164  RH  038%=      5-min Rain = 0
KPT1 251925Z 15009G14KT 33/17 A2999 RMK A01 T03260167  RH  039%=      5-min Rain = 0
KPT1 251930Z 16008G13KT 33/16 A2999 RMK A01 T03280164  RH  038%=      5-min Rain = 0
KPT1 251935Z 16007G12KT 33/16 A2999 RMK A01 T03290163  RH  038%=      5-min Rain = 0
KPT1 251940Z 16007G15KT 33/17 A2998 RMK A01 T03290165  RH  038%=      5-min Rain = 0
KPT1 251945Z 15009KT 33/17 A2998 RMK A01 T03310165  RH  038%=      5-min Rain = 0
KPT1 251950Z 15011G16KT 33/17 A2998 RMK A01 T03290170  RH  040%=      5-min Rain = 0
KPT1 251955Z 16009KT 33/17 A2998 RMK A01 T03300170  RH  039%=      5-min Rain = 0
KPT1 252000Z 16010KT 33/17 A2998 RMK A01 T03320168  RH  038%=      5-min Rain = 0
KPT1 252005Z 15010KT 33/17 A2998 RMK A01 T03310165  RH  038%=      5-min Rain = 0
KPT1 252010Z 14010KT 33/16 A2997 RMK A01 T03310163  RH  038%=      5-min Rain = 0
KPT1 252015Z 17009KT 33/16 A2997 RMK A01 T03320161  RH  037%=      5-min Rain = 0
KPT1 252020Z 15010KT 33/16 A2997 RMK A01 T03340160  RH  036%=      5-min Rain = 0
KPT1 252025Z 16009G15KT 34/16 A2997 RMK A01 T03350159  RH  036%=      5-min Rain = 0
KPT1 252030Z 14010KT 33/16 A2997 RMK A01 T03330155  RH  035%=      5-min Rain = 0
KPT1 252035Z 15009G14KT 33/15 A2997 RMK A01 T03340154  RH  035%=      5-min Rain = 0
KPT1 252040Z 14009KT 34/15 A2996 RMK A01 T03360153  RH  034%=      5-min Rain = 0
KPT1 252045Z 14010G16KT 33/15 A2996 RMK A01 T03340151  RH  034%=      5-min Rain = 0
KPT1 252050Z 13009G16KT 34/15 A2996 RMK A01 T03350152  RH  034%=      5-min Rain = 0
KPT1 252055Z 14009G14KT 34/16 A2996 RMK A01 T03360156  RH  035%=      5-min Rain = 0
KPT1 252100Z 15008KT 34/15 A2996 RMK A01 T03390147  RH  032%=      5-min Rain = 0
KPT1 252105Z 15009G16KT 34/15 A2996 RMK A01 T03390150  RH  033%=      5-min Rain = 0
KPT1 252110Z 13011G17KT 34/16 A2996 RMK A01 T03380157  RH  035%=      5-min Rain = 0
KPT1 252115Z 13011KT 34/16 A2996 RMK A01 T03360158  RH  035%=      5-min Rain = 0
KPT1 252120Z 13010G16KT 34/16 A2996 RMK A01 T03350163  RH  037%=      5-min Rain = 0
KPT1 252125Z 13012G18KT 34/17 A2995 RMK A01 T03370165  RH  037%=      5-min Rain = 0
KPT1 252130Z 13011G17KT 33/16 A2995 RMK A01 T03340163  RH  037%=      5-min Rain = 0
KPT1 252135Z 14013G18KT 33/16 A2995 RMK A01 T03340163  RH  037%=      5-min Rain = 0
KPT1 252140Z 13013G20KT 33/16 A2995 RMK A01 T03340161  RH  036%=      5-min Rain = 0
KPT1 252145Z 14012G17KT 33/16 A2995 RMK A01 T03340161  RH  036%=      5-min Rain = 0
KPT1 252150Z 14011KT 34/16 A2995 RMK A01 T03370159  RH  035%=      5-min Rain = 0
KPT1 252155Z 14012G17KT 33/16 A2995 RMK A01 T03340158  RH  036%=      5-min Rain = 0
KPT1 252200Z 13013G19KT 33/16 A2994 RMK A01 T03340157  RH  035%=      5-min Rain = 0
KPT1 252205Z 14013G20KT 33/16 A2994 RMK A01 T03320156  RH  035%=      5-min Rain = 0
KPT1 252210Z 13013G19KT 33/16 A2994 RMK A01 T03300157  RH  036%=      5-min Rain = 0
KPT1 252215Z 13012G18KT 33/16 A2994 RMK A01 T03320158  RH  036%=      5-min Rain = 0
KPT1 252220Z 13014KT 33/15 A2994 RMK A01 T03290154  RH  036%=      5-min Rain = 0
KPT1 252225Z 13013G19KT 33/15 A2994 RMK A01 T03290154  RH  036%=      5-min Rain = 0
KPT1 252230Z 14013G19KT 33/15 A2994 RMK A01 T03280154  RH  036%=      5-min Rain = 0
KPT1 252235Z 13011G16KT 33/16 A2994 RMK A01 T03320155  RH  036%=      5-min Rain = 0
KPT1 252240Z 15012KT 33/16 A2993 RMK A01 T03320155  RH  035%=      5-min Rain = 0
KPT1 252245Z 14013G19KT 33/15 A2994 RMK A01 T03290152  RH  035%=      5-min Rain = 0
KPT1 252250Z 14013G19KT 33/16 A2993 RMK A01 T03280156  RH  036%=      5-min Rain = 0
KPT1 252255Z 14013G18KT 33/16 A2993 RMK A01 T03290157  RH  036%=      5-min Rain = 0
KPT1 252300Z 14012G20KT 33/16 A2993 RMK A01 T03280156  RH  036%=      5-min Rain = 0
KPT1 252305Z 15012G17KT 33/15 A2993 RMK A01 T03290152  RH  035%=      5-min Rain = 0
KPT1 252310Z 14011G17KT 33/15 A2993 RMK A01 T03280150  RH  035%=      5-min Rain = 0
KPT1 252315Z 15011KT 33/15 A2993 RMK A01 T03280148  RH  035%=      5-min Rain = 0
KPT1 252320Z 15013G18KT 33/15 A2993 RMK A01 T03260149  RH  035%=      5-min Rain = 0
KPT1 252325Z 15013G18KT 33/15 A2993 RMK A01 T03250148  RH  035%=      5-min Rain = 0
KPT1 252330Z 15013G18KT 33/15 A2992 RMK A01 T03260147  RH  035%=      5-min Rain = 0
KPT1 252335Z 15011G17KT 33/15 A2992 RMK A01 T03260151  RH  036%=      5-min Rain = 0
KPT1 252340Z 15013G19KT 33/15 A2992 RMK A01 T03260151  RH  036%=      5-min Rain = 0
KPT1 252345Z 14011G16KT 33/15 A2992 RMK A01 T03250151  RH  036%=      5-min Rain = 0
KPT1 252350Z 15012G19KT 33/15 A2992 RMK A01 T03250146  RH  035%=      5-min Rain = 0
KPT1 252355Z 14015G20KT 32/15 A2991 RMK A01 T03220146  RH  035%=      5-min Rain = 0
KPT1 260000Z 15015KT 32/14 A2992 RMK A01 T03210143  RH  035%=      5-min Rain = 0
KPT1 260005Z 15012G19KT 32/14 A2992 RMK A01 T03200138  RH  034%=      5-min Rain = 0
KPT1 260010Z 15014G21KT 32/14 A2991 RMK A01 T03190137  RH  034%=      5-min Rain = 0
KPT1 260015Z 14012G17KT 32/14 A2992 RMK A01 T03180142  RH  035%=      5-min Rain = 0
KPT1 260020Z 15011G17KT 32/14 A2992 RMK A01 T03170143  RH  035%=      5-min Rain = 0
KPT1 260025Z 14014G20KT 32/14 A2992 RMK A01 T03150141  RH  036%=      5-min Rain = 0
KPT1 260030Z 14014G21KT 31/14 A2993 RMK A01 T03130143  RH  036%=      5-min Rain = 0
KPT1 260035Z 14013G18KT 31/14 A2993 RMK A01 T03120144  RH  037%=      5-min Rain = 0
KPT1 260040Z 14014G19KT 31/14 A2993 RMK A01 T03110143  RH  037%=      5-min Rain = 0
KPT1 260045Z 14014G19KT 31/14 A2993 RMK A01 T03100144  RH  037%=      5-min Rain = 0
KPT1 260050Z 15014G19KT 31/14 A2994 RMK A01 T03090144  RH  037%=      5-min Rain = 0
KPT1 260055Z 15012G18KT 31/14 A2994 RMK A01 T03080144  RH  038%=      5-min Rain = 0
KPT1 260100Z 14012KT 31/14 A2994 RMK A01 T03070144  RH  038%=      5-min Rain = 0
KPT1 260105Z 14011G18KT 31/15 A2994 RMK A01 T03050145  RH  038%=      5-min Rain = 0
KPT1 260110Z 13012KT 30/14 A2995 RMK A01 T03040143  RH  038%=      5-min Rain = 0
KPT1 260115Z 14011G16KT 30/14 A2995 RMK A01 T03020143  RH  039%=      5-min Rain = 0
KPT1 260120Z 14012G17KT 30/15 A2995 RMK A01 T03010146  RH  040%=      5-min Rain = 0
KPT1 260125Z 15010G17KT 30/15 A2996 RMK A01 T02990148  RH  041%=      5-min Rain = 0
KPT1 260130Z 14012G17KT 30/15 A2996 RMK A01 T02970149  RH  042%=      5-min Rain = 0
KPT1 260135Z 14013G19KT 30/15 A2996 RMK A01 T02950147  RH  041%=      5-min Rain = 0
KPT1 260140Z 15012G17KT 29/15 A2996 RMK A01 T02930147  RH  042%=      5-min Rain = 0
KPT1 260145Z 14012KT 29/15 A2996 RMK A01 T02910148  RH  043%=      5-min Rain = 0
KPT1 260150Z 15011KT 29/15 A2997 RMK A01 T02890149  RH  043%=      5-min Rain = 0
KPT1 260155Z 15010G15KT 29/15 A2997 RMK A01 T02870150  RH  044%=      5-min Rain = 0
KPT1 260200Z 14009G14KT 28/15 A2997 RMK A01 T02840152  RH  046%=      5-min Rain = 0
KPT1 260205Z 15009KT 28/15 A2997 RMK A01 T02820153  RH  047%=      5-min Rain = 0
KPT1 260210Z 14012G18KT 28/15 A2997 RMK A01 T02820154  RH  047%=      5-min Rain = 0
KPT1 260215Z 15010KT 28/16 A2997 RMK A01 T02790155  RH  048%=      5-min Rain = 0
KPT1 260220Z 15010KT 28/16 A2997 RMK A01 T02780155  RH  048%=      5-min Rain = 0
KPT1 260225Z 15010G15KT 28/15 A2997 RMK A01 T02780154  RH  048%=      5-min Rain = 0
KPT1 260230Z 15010KT 28/16 A2997 RMK A01 T02760155  RH  049%=      5-min Rain = 0
KPT1 260235Z 15009KT 28/16 A2998 RMK A01 T02750156  RH  049%=      5-min Rain = 0
KPT1 260240Z 14008KT 27/16 A2998 RMK A01 T02720157  RH  051%=      5-min Rain = 0
KPT1 260245Z 13008KT 27/16 A2999 RMK A01 T02690159  RH  052%=      5-min Rain = 0
KPT1 260250Z 13007KT 27/16 A2999 RMK A01 T02660160  RH  054%=      5-min Rain = 0
KPT1 260255Z 13007KT 26/16 A30 RMK A01 T02640161  RH  054%=      5-min Rain = 0
KPT1 260300Z 12007KT 26/16 A30 RMK A01 T02630162  RH  055%=      5-min Rain = 0
KPT1 260305Z 12007KT 26/16 A3001 RMK A01 T02610163  RH  056%=      5-min Rain = 0
KPT1 260310Z 12007KT 26/17 A3001 RMK A01 T02600165  RH  057%=      5-min Rain = 0
KPT1 260315Z 12007KT 26/17 A3002 RMK A01 T02580166  RH  058%=      5-min Rain = 0
KPT1 260320Z 11006KT 26/17 A3002 RMK A01 T02560167  RH  059%=      5-min Rain = 0
KPT1 260325Z 10007KT 25/17 A3003 RMK A01 T02540167  RH  060%=      5-min Rain = 0
KPT1 260330Z 12006KT 25/17 A3004 RMK A01 T02540167  RH  060%=      5-min Rain = 0
KPT1 260335Z 12006KT 25/17 A3004 RMK A01 T02530167  RH  060%=      5-min Rain = 0
KPT1 260340Z 13006KT 25/17 A3005 RMK A01 T02530167  RH  060%=      5-min Rain = 0
KPT1 260345Z 14005KT 25/17 A3005 RMK A01 T02510168  RH  061%=      5-min Rain = 0
KPT1 260350Z 14005KT 25/17 A3005 RMK A01 T02490168  RH  062%=      5-min Rain = 0
KPT1 260355Z 11005KT 25/17 A3006 RMK A01 T02470169  RH  063%=      5-min Rain = 0
KPT1 260400Z 07006KT 24/17 A3006 RMK A01 T02430171  RH  066%=      5-min Rain = 0
KPT1 260405Z 06006KT 24/17 A3007 RMK A01 T02400172  RH  067%=      5-min Rain = 0
KPT1 260410Z 05005KT 24/17 A3007 RMK A01 T02360171  RH  068%=      5-min Rain = 0
KPT1 260415Z 04005KT 24/17 A3007 RMK A01 T02350170  RH  069%=      5-min Rain = 0
KPT1 260420Z 03007KT 24/17 A3008 RMK A01 T02380170  RH  067%=      5-min Rain = 0
KPT1 260425Z 03009KT 24/17 A3009 RMK A01 T02410170  RH  066%=      5-min Rain = 0
KPT1 260430Z 03009KT 24/17 A3009 RMK A01 T02440170  RH  065%=      5-min Rain = 0
KPT1 260435Z 02008KT 24/17 A301 RMK A01 T02440169  RH  064%=      5-min Rain = 0
KPT1 260440Z 04009KT 25/17 A301 RMK A01 T02450167  RH  063%=      5-min Rain = 0
KPT1 260445Z 05009KT 24/17 A301 RMK A01 T02440166  RH  063%=      5-min Rain = 0
KPT1 260450Z 05008KT 24/17 A301 RMK A01 T02420165  RH  063%=      5-min Rain = 0
KPT1 260455Z 05007KT 24/16 A301 RMK A01 T02420163  RH  063%=      5-min Rain = 0

Page generated in 0.0099 seconds.